Willeys, Illinois
Current Conditions -  °F | °C
As of 9:15 AM on Thursday 18 Dec 2014 (Local Time) from KTAZ Reporting Station
Light Snow Light Snow  
Wind Chill: 21°   Ceiling: 3800
Heat Index: 27°   Visibility: 3mi
Dew Point: 23°   Wind: 5mph
Humidity: 86%   Direction: 60°ENE
Pressure: 30.31"   Gusts: NA
Location:  39.5521°N, 89.3216°W
Report Text: KTAZ 181515Z AUTO 06004KT 3SM -SN SCT024 BKN038 OVC046 M03/M05 A3031 RMK AO2
Loading
Personal Weather Stations






























Interactive Weather Map New forecast layout! Learn more

10-Day Weather Forecast

Advertisements
Track Severe Weather on mobile